Terminal Aerodrome Forecast
Issued by NWS Grand Forks, ND

Home | Current Version | Previous Version | Text Only | Print | Product List | Glossary On
Versions: 1 2 3 4 5 6 7 8 9 10 11 12 13
000
FTUS43 KFGF 222331
TAFFAR
TAF
KFAR 222331Z 2300/2324 17008KT P6SM SKC
     FM231200 17007KT P6SM SCT070 BKN250
     FM231700 16008G16KT P6SM SCT050 BKN100
     FM232100 16010G20KT P6SM VCTS BKN040CB=

USA.gov is the U.S. government's official web portal to all federal, state and local government web resources and services.